Terminal Aerodrome Forecast
Issued by NWS Austin/San Antonio, TX

Home | Current Version | Previous Version | Text Only | Print | Product List | Glossary On
Versions: 1 2 3 4 5 6 7 8 9 10 11 12 13 14 15 16 17 18
161
FTUS44 KEWX 261737
TAFDRT
TAF
KDRT 261737Z 2618/2718 14012KT P6SM FEW050 FEW250
     FM270300 12010KT P6SM FEW250
     FM271500 14012KT P6SM FEW250=

USA.gov is the U.S. government's official web portal to all federal, state and local government web resources and services.